Flight Track Log - Related Links

Times and Time Zones

All times are in EDT time to prevent confusion due to time zone crossing. See the RPA1631 flight status page for this flight to view local times or setup timezone preferences in your user account.

Time Position Orientation Groundspeed Altitude Reporting Facility
EDT Latitude Longitude Course Direction KTS MPH feet Rate Location/Type
Sun 09:09:34 AM 43.1789 -89.3722 271° West 197 227 2,700  Level Chicago Center
Sun 09:10:36 AM 43.1794 -89.4636 271° West 234 269 4,400 2,488 Climbing Chicago Center
Sun 09:11:37 AM 43.1783 -89.5736 269° West 277 319 7,800 3,073 Climbing Chicago Center
Sun 09:12:39 AM 43.1778 -89.6861 270° West 292 336 10,700 1,935 Climbing Chicago Center
Sun 09:13:41 AM 43.1761 -89.8231 269° West 371 427 11,800 1,854 Climbing Chicago Center
Sun 09:14:42 AM 43.1739 -89.9697 269° West 385 443 14,500 2,585 Climbing Chicago Center
Sun 09:15:44 AM 43.1719 -90.1472 269° West 398 458 17,100 2,226 Climbing Chicago Center
Sun 09:16:46 AM 43.1708 -90.2919 269° West 412 474 19,100 1,854 Climbing Chicago Center
Sun 09:17:47 AM 43.1689 -90.4519 269° West 424 488 20,900 1,707 Climbing Chicago Center
Sun 09:18:49 AM 43.1664 -90.6153 269° West 434 499 22,600 1,694 Climbing Chicago Center
Sun 09:19:51 AM 43.1639 -90.8161 269° West 444 511 24,400 1,548 Climbing Chicago Center
Sun 09:20:53 AM 43.1606 -90.9878 269° West 455 524 25,800 1,181 Climbing Chicago Center
Sun 09:21:58 AM 43.1581 -91.1600 269° West 458 527 26,900 1,048 Climbing Minneapolis Center
Sun 09:22:59 AM 43.1544 -91.3725 269° West 470 541 28,000 537 Climbing Minneapolis Center
Sun 09:24:01 AM 43.1506 -91.5500 268° West 473 544 28,000  Level Minneapolis Center
Sun 09:25:02 AM 43.1456 -91.7256 268° West 472 543 28,000  Level Minneapolis Center
Sun 09:26:03 AM 43.1406 -91.9000 268° West 470 541 28,000 49 Level Minneapolis Center
Sun 09:27:05 AM 43.1358 -92.0764 268° West 470 541 28,100 537 Climbing Minneapolis Center
Sun 09:28:06 AM 43.1317 -92.2514 268° West 467 537 29,100 927 Climbing Minneapolis Center
Sun 09:29:08 AM 43.1250 -92.4678 268° West 477 549 30,000 439 Climbing Minneapolis Center
Sun 09:30:09 AM 43.1181 -92.6500 267° West 484 557 30,000  Level Minneapolis Center
Sun 09:31:10 AM 43.1125 -92.8264 268° West 475 547 30,000  Level Minneapolis Center
Sun 09:32:12 AM 43.1058 -93.0064 267° West 476 548 30,000 195 Level Minneapolis Center
Sun 09:33:13 AM 43.1003 -93.1836 268° West 474 545 30,400 780 Climbing Minneapolis Center
Sun 09:34:15 AM 43.0917 -93.3625 266° West 475 547 31,600 780 Climbing Minneapolis Center
Sun 09:35:16 AM 43.0708 -93.5728 262° West 470 541 32,000 492 Climbing Minneapolis Center
Sun 09:36:17 AM 43.0553 -93.7469 263° West 467 537 32,600 634 Climbing Minneapolis Center
Sun 09:37:19 AM 43.0317 -93.9164 259° West 461 531 33,300 683 Climbing Minneapolis Center
Sun 09:38:20 AM 42.9975 -94.0875 255° West 467 537 34,000 311 Climbing Minneapolis Center
Sun 09:39:34 AM 42.9636 -94.2569 255° West 468 539 34,000  Level Minneapolis Center
Sun 09:40:36 AM 42.9239 -94.4578 255° West 462 532 34,000  Level Minneapolis Center
Sun 09:41:37 AM 42.8856 -94.6567 255° West 460 529 34,000  Level Minneapolis Center
Sun 09:42:39 AM 42.8514 -94.8236 254° West 458 527 34,000  Level Minneapolis Center
Sun 09:43:40 AM 42.8181 -94.9900 255° West 456 525 34,000  Level Minneapolis Center
Sun 09:44:42 AM 42.7844 -95.1536 254° West 452 520 34,000  Level Minneapolis Center
Sun 09:45:43 AM 42.7514 -95.3178 255° West 451 519 34,000  Level Minneapolis Center
Sun 09:46:45 AM 42.7142 -95.4972 254° West 455 524 34,000  Level Minneapolis Center
Sun 09:47:46 AM 42.6786 -95.6614 254° West 456 525 34,000  Level Minneapolis Center
Sun 09:48:48 AM 42.6453 -95.8242 254° West 450 518 34,000  Level Minneapolis Center
Sun 09:49:49 AM 42.6094 -95.9894 254° West 457 526 34,000  Level Minneapolis Center
Sun 09:50:51 AM 42.5747 -96.1539 254° West 455 524 34,000  Level Minneapolis Center
Sun 09:51:52 AM 42.5472 -96.2856 254° West 456 525 34,000  Level Minneapolis Center
Sun 09:52:54 AM 42.4975 -96.5128 254° West 453 521 34,000  Level Minneapolis Center
Sun 09:53:56 AM 42.4611 -96.6781 253° West 457 526 34,000  Level Minneapolis Center
Sun 09:55:09 AM 42.4244 -96.8425 253° West 458 527 34,000  Level Minneapolis Center
Sun 09:56:11 AM 42.3808 -97.0392 253° West 457 526 34,000  Level Minneapolis Center
Sun 09:57:13 AM 42.3444 -97.2044 253° West 458 527 34,000  Level Minneapolis Center
Sun 09:58:14 AM 42.3072 -97.3664 253° West 456 525 34,000  Level Minneapolis Center
Sun 09:59:16 AM 42.2703 -97.5306 253° West 457 526 34,000  Level Minneapolis Center
Sun 10:00:17 AM 42.2250 -97.7278 253° West 459 528 34,000  Level Minneapolis Center
Sun 10:01:19 AM 42.1919 -97.8706 253° West 455 524 34,000  Level Minneapolis Center
Sun 10:02:21 AM 42.1539 -98.0311 252° West 453 521 34,000  Level Minneapolis Center
Sun 10:03:22 AM 42.1100 -98.2233 253° West 449 517 34,000  Level Minneapolis Center
Sun 10:04:24 AM 42.0722 -98.3808 252° West 446 513 34,000  Level Minneapolis Center
Sun 10:05:26 AM 42.0353 -98.5381 252° West 443 510 34,000  Level Minneapolis Center
Sun 10:06:27 AM 41.9972 -98.6928 252° West 440 506 34,000  Level Minneapolis Center
Sun 10:07:29 AM 41.9606 -98.8472 252° West 437 503 34,000  Level Minneapolis Center
Sun 10:08:31 AM 41.9222 -99.0031 252° West 440 506 34,000  Level Minneapolis Center
Sun 10:09:33 AM 41.8761 -99.1922 252° West 446 513 34,000  Level Minneapolis Center
Sun 10:10:47 AM 41.8278 -99.3814 251° West 448 516 34,000  Level Denver Center
Sun 10:11:49 AM 41.7836 -99.5386 249° West 451 519 34,000  Level Denver Center
Sun 10:12:50 AM 41.7367 -99.6936 248° West 451 519 34,000  Level Denver Center
Sun 10:13:52 AM 41.6906 -99.8531 249° West 458 527 34,000  Level Denver Center
Sun 10:14:54 AM 41.6375 -100.0286 248° West 458 527 34,000  Level Denver Center
Sun 10:15:55 AM 41.5925 -100.1797 248° West 459 528 34,000  Level Denver Center
Sun 10:16:57 AM 41.5408 -100.3539 248° West 455 524 34,000  Level Denver Center
Sun 10:17:58 AM 41.4939 -100.5058 248° West 461 531 34,000  Level Denver Center
Sun 10:19:00 AM 41.4406 -100.6811 248° West 460 529 34,000  Level Denver Center
Sun 10:20:02 AM 41.3947 -100.8303 248° West 459 528 34,000  Level Denver Center
Sun 10:21:04 AM 41.3408 -101.0036 248° West 455 524 34,000  Level Denver Center
Sun 10:22:05 AM 41.2947 -101.1522 248° West 456 525 34,000  Level Denver Center
Sun 10:23:07 AM 41.2508 -101.2925 247° West 437 503 34,000  Level Denver Center
Sun 10:24:21 AM 41.2006 -101.4544 248° West 429 494 34,000  Level Denver Center
Sun 10:25:23 AM 41.1414 -101.6400 247° West 429 494 34,000  Level Denver Center
Sun 10:26:25 AM 41.0961 -101.7806 247° West 432 497 34,000  Level Denver Center
Sun 10:27:27 AM 41.0433 -101.9431 247° West 433 498 34,000  Level Denver Center
Sun 10:28:29 AM 40.9992 -102.0825 247° West 431 496 34,000  Level Denver Center
Sun 10:29:31 AM 40.9450 -102.2461 246° West 435 501 34,000  Level Denver Center
Sun 10:30:33 AM 40.9003 -102.3858 247° West 435 501 34,000  Level Denver Center
Sun 10:31:35 AM 40.8467 -102.5494 247° West 434 499 34,000  Level Denver Center
Sun 10:32:37 AM 40.8000 -102.6906 246° West 438 504 34,000  Level Denver Center
Sun 10:33:38 AM 40.7619 -102.8075 247° West 436 502 34,000  Level Denver Center
Sun 10:34:41 AM 40.6989 -102.9961 246° West 440 506 34,000 -528 Level Denver Center
Sun 10:35:43 AM 40.6542 -103.1322 247° West 442 509 32,900 -1,765 Descending Denver Center
Sun 10:36:57 AM 40.5936 -103.3125 246° West 450 518 30,000 -2,540 Descending Denver Center
Sun 10:38:00 AM 40.5314 -103.4936 246° West 456 525 27,100 -2,544 Descending Denver Center
Sun 10:39:02 AM 40.4806 -103.6442 246° West 452 520 24,700 -2,323 Descending Denver Center
Sun 10:40:04 AM 40.4289 -103.7967 246° West 437 503 22,300 -2,274 Descending Denver Center
Sun 10:41:06 AM 40.3806 -103.9433 247° West 409 471 20,000 -2,177 Descending Denver Center
Sun 10:42:08 AM 40.3369 -104.0800 247° West 405 466 17,800 -2,032 Descending Denver Center
Sun 10:43:10 AM 40.2933 -104.2225 248° West 392 451 15,800 -1,887 Descending Denver Center
Sun 10:44:12 AM 40.2750 -104.3458 259° West 348 400 13,900 -1,790 Descending Denver Center
Sun 10:45:14 AM 40.2364 -104.4556 245° Southwest 314 361 12,100 -1,597 Descending Denver Center
Sun 10:46:16 AM 40.1919 -104.5436 237° Southwest 293 337 10,600 -1,500 Descending Denver Center
Sun 10:47:18 AM 40.1250 -104.5997 213° Southwest 274 315 9,000 -1,452 Descending Denver Center
Sun 10:48:20 AM 40.0603 -104.6383 205° Southwest 258 297 7,600 -968 Descending Denver Center
Sun 10:49:22 AM 39.9994 -104.6742 204° Southwest 222 255 7,000 -581 Descending Denver Center
Sun 10:50:24 AM 39.9475 -104.6861 190° South 194 223 6,400 -629 Descending Denver Center
Sun 10:51:26 AM 39.9092 -104.6867 181° South 169 194 5,700 -677 Descending Denver Center
Sun 10:53:00 AM 39.8617 -104.6732 190° South  Level Estimated
Sun 11:00:00 AM 39.8617 -104.6732 190° South  Level Estimated
Sun 11:01:00 AM 39.8617 -104.6732 190° South  Level Estimated
Sun 11:02:00 AM 39.8617 -104.6732 190° South  Level Estimated

Login

Don't have an account? Register now (free) for customized features, flight alerts, and more!